Time;durP1;ratioP1;P1;durP2;ratioP2;P2;SDS_P1;SDS_P2;PMS_P1;PMS_P2;Temp;Humidity;BMP_temperature;BMP_pressure;BME280_temperature;BME280_humidity;BME280_pressure;Samples;Min_cycle;Max_cycle;Signal;HPM_P1;HPM_P2
2023/06/04 00:00:19;;;;;;;1.60;1.60;;;;;;;;;;6335625;28;20301;-69
2023/06/04 00:03:25;;;;;;;1.40;1.40;;;;;;;;;;6335964;28;20298;-70
2023/06/04 00:06:30;;;;;;;1.80;1.70;;;;;;;;;;6335743;28;20285;-70
2023/06/04 00:09:35;;;;;;;5.30;2.05;;;;;;;;;;6335763;28;20565;-71
2023/06/04 00:12:41;;;;;;;1.70;1.70;;;;;;;;;;6335961;28;20293;-69
2023/06/04 00:15:47;;;;;;;3.70;1.90;;;;;;;;;;6335632;28;20361;-69
2023/06/04 00:18:52;;;;;;;1.42;1.42;;;;;;;;;;6335980;28;20297;-73
2023/06/04 00:21:57;;;;;;;1.45;1.45;;;;;;;;;;6334765;28;20294;-70
2023/06/04 00:25:03;;;;;;;2.10;2.00;;;;;;;;;;6335360;28;20301;-69
2023/06/04 00:28:10;;;;;;;1.60;1.60;;;;;;;;;;6336639;28;20285;-70
2023/06/04 00:31:16;;;;;;;2.13;1.90;;;;;;;;;;6334834;28;20465;-69
2023/06/04 00:34:22;;;;;;;1.45;1.45;;;;;;;;;;6334960;28;20298;-71
2023/06/04 00:37:28;;;;;;;1.35;1.35;;;;;;;;;;6335534;28;20301;-70
2023/06/04 00:40:33;;;;;;;1.33;1.33;;;;;;;;;;6335307;28;20294;-70
2023/06/04 00:43:39;;;;;;;1.58;1.58;;;;;;;;;;6335168;28;20297;-71
2023/06/04 00:46:47;;;;;;;1.20;1.20;;;;;;;;;;6317104;28;20585;-69
2023/06/04 00:49:59;;;;;;;1.70;1.70;;;;;;;;;;6316695;28;20293;-69
2023/06/04 00:53:04;;;;;;;1.45;1.45;;;;;;;;;;6335393;28;20285;-69
2023/06/04 00:56:11;;;;;;;1.17;1.17;;;;;;;;;;6317172;28;20305;-69
2023/06/04 00:59:17;;;;;;;1.65;1.55;;;;;;;;;;6334864;28;20487;-70
2023/06/04 01:02:25;;;;;;;1.63;1.63;;;;;;;;;;6335278;28;20285;-69
2023/06/04 01:05:35;;;;;;;1.73;1.65;;;;;;;;;;6334561;28;20302;-69
2023/06/04 01:08:42;;;;;;;1.30;1.30;;;;;;;;;;6316016;28;20274;-69
2023/06/04 01:11:47;;;;;;;2.03;1.50;;;;;;;;;;6334273;28;20567;-69
2023/06/04 01:14:53;;;;;;;1.60;1.60;;;;;;;;;;6316359;28;20293;-70
2023/06/04 01:18:03;;;;;;;1.70;1.63;;;;;;;;;;6335153;28;20356;-70
2023/06/04 01:21:12;;;;;;;1.80;1.70;;;;;;;;;;6316572;28;20478;-70
2023/06/04 01:24:17;;;;;;;1.52;1.40;;;;;;;;;;6316009;28;20298;-70
2023/06/04 01:27:23;;;;;;;1.75;1.65;;;;;;;;;;6317028;28;20285;-70
2023/06/04 01:30:31;;;;;;;1.40;1.40;;;;;;;;;;6334903;28;20310;-69
2023/06/04 01:33:38;;;;;;;1.40;1.40;;;;;;;;;;6316647;28;20318;-71
2023/06/04 01:36:44;;;;;;;1.40;1.40;;;;;;;;;;6316518;28;20617;-71
2023/06/04 01:39:50;;;;;;;1.30;1.30;;;;;;;;;;6334089;28;20291;-70
2023/06/04 01:42:55;;;;;;;1.30;1.30;;;;;;;;;;6321416;28;20380;-71
2023/06/04 01:46:00;;;;;;;1.50;1.40;;;;;;;;;;6339594;28;20313;-71
2023/06/04 01:49:07;;;;;;;1.52;1.52;;;;;;;;;;6322265;28;20285;-70
2023/06/04 01:52:13;;;;;;;1.73;1.70;;;;;;;;;;6321327;28;20298;-70
2023/06/04 01:55:19;;;;;;;1.30;1.30;;;;;;;;;;6338927;28;20454;-69
2023/06/04 01:58:26;;;;;;;1.30;1.30;;;;;;;;;;6339963;28;20293;-70
2023/06/04 02:01:32;;;;;;;1.60;1.60;;;;;;;;;;6320947;28;20419;-70
2023/06/04 02:04:41;;;;;;;1.40;1.40;;;;;;;;;;6311958;28;20294;-70
2023/06/04 02:07:48;;;;;;;1.45;1.35;;;;;;;;;;6313238;28;20286;-70
2023/06/04 02:10:54;;;;;;;1.45;1.45;;;;;;;;;;6314606;28;20506;-71
2023/06/04 02:13:59;;;;;;;1.40;1.40;;;;;;;;;;6296420;28;20381;-70
2023/06/04 02:17:05;;;;;;;2.55;1.67;;;;;;;;;;6313692;28;20586;-71
2023/06/04 02:20:13;;;;;;;1.70;1.60;;;;;;;;;;6313640;28;20294;-70
2023/06/04 02:23:20;;;;;;;1.48;1.48;;;;;;;;;;6313898;28;20589;-69
2023/06/04 02:26:25;;;;;;;1.90;1.90;;;;;;;;;;6311804;28;20602;-69
2023/06/04 02:29:30;;;;;;;2.15;2.00;;;;;;;;;;6313171;28;20298;-70
2023/06/04 02:32:35;;;;;;;1.65;1.65;;;;;;;;;;6311892;28;20456;-71
2023/06/04 02:35:42;;;;;;;1.77;1.77;;;;;;;;;;6310792;28;20290;-71
2023/06/04 02:38:48;;;;;;;2.30;1.77;;;;;;;;;;6312742;28;20429;-69
2023/06/04 02:41:53;;;;;;;2.10;2.00;;;;;;;;;;6312598;28;20298;-69
2023/06/04 02:44:58;;;;;;;1.40;1.40;;;;;;;;;;6312507;28;20302;-71
2023/06/04 02:48:03;;;;;;;1.70;1.70;;;;;;;;;;6312728;28;20310;-71
2023/06/04 02:51:12;;;;;;;1.80;1.70;;;;;;;;;;6312119;28;20298;-69
2023/06/04 02:54:17;;;;;;;1.42;1.40;;;;;;;;;;6311608;28;20306;-70
2023/06/04 02:57:22;;;;;;;1.20;1.20;;;;;;;;;;6312911;28;20294;-70
2023/06/04 03:00:27;;;;;;;3.05;1.10;;;;;;;;;;6311998;28;20302;-69
2023/06/04 03:03:32;;;;;;;1.08;1.08;;;;;;;;;;6310503;28;20528;-69
2023/06/04 03:06:39;;;;;;;1.05;1.00;;;;;;;;;;6310458;28;20294;-70
2023/06/04 03:09:44;;;;;;;1.00;1.00;;;;;;;;;;6310411;28;20609;-69
2023/06/04 03:12:49;;;;;;;1.00;1.00;;;;;;;;;;6310933;28;20506;-68
2023/06/04 03:15:55;;;;;;;2.00;0.93;;;;;;;;;;6310727;28;20574;-69
2023/06/04 03:19:01;;;;;;;0.90;0.90;;;;;;;;;;6310312;28;20294;-70
2023/06/04 03:22:08;;;;;;;0.90;0.90;;;;;;;;;;6312344;28;20290;-71
2023/06/04 03:25:14;;;;;;;0.85;0.85;;;;;;;;;;6309712;28;20507;-70
2023/06/04 03:28:19;;;;;;;0.90;0.90;;;;;;;;;;6311662;28;20294;-70
2023/06/04 03:31:24;;;;;;;0.77;0.77;;;;;;;;;;6311405;28;20298;-71
2023/06/04 03:34:32;;;;;;;0.98;0.98;;;;;;;;;;6309766;28;20302;-68
2023/06/04 03:37:41;;;;;;;0.90;0.90;;;;;;;;;;6310093;28;20286;-71
2023/06/04 03:40:47;;;;;;;0.90;0.90;;;;;;;;;;6309513;28;20298;-69
2023/06/04 03:43:52;;;;;;;0.90;0.90;;;;;;;;;;6309176;28;20286;-71
2023/06/04 03:46:58;;;;;;;0.80;0.80;;;;;;;;;;6309615;28;20286;-70
2023/06/04 03:50:06;;;;;;;1.00;1.00;;;;;;;;;;6309581;28;20483;-71
2023/06/04 03:53:13;;;;;;;1.00;1.00;;;;;;;;;;6310126;28;20296;-70
2023/06/04 03:56:19;;;;;;;0.90;0.90;;;;;;;;;;6309083;28;20302;-71
2023/06/04 03:59:24;;;;;;;0.90;0.90;;;;;;;;;;6309530;28;20310;-70
2023/06/04 04:02:29;;;;;;;1.00;1.00;;;;;;;;;;6310237;28;20298;-70
2023/06/04 04:05:35;;;;;;;0.98;0.98;;;;;;;;;;6317161;28;20294;-70
2023/06/04 04:08:43;;;;;;;0.82;0.82;;;;;;;;;;6316497;28;20273;-69
2023/06/04 04:11:51;;;;;;;1.33;0.95;;;;;;;;;;6314329;28;20266;-70
2023/06/04 04:14:56;;;;;;;11.18;1.10;;;;;;;;;;6335544;28;20303;-70
2023/06/04 04:18:03;;;;;;;1.05;1.00;;;;;;;;;;6318015;28;20301;-71
2023/06/04 04:21:11;;;;;;;0.90;0.90;;;;;;;;;;6317174;28;20297;-69
2023/06/04 04:24:25;;;;;;;0.95;0.95;;;;;;;;;;6317202;28;20597;-69
2023/06/04 04:27:38;;;;;;;0.90;0.90;;;;;;;;;;6317534;28;20450;-69
2023/06/04 04:30:46;;;;;;;0.82;0.82;;;;;;;;;;6317224;28;20380;-68
2023/06/04 04:33:53;;;;;;;0.70;0.70;;;;;;;;;;6317177;28;20314;-70
2023/06/04 04:36:59;;;;;;;0.93;0.93;;;;;;;;;;6317240;28;20289;-70
2023/06/04 04:40:09;;;;;;;2.25;0.80;;;;;;;;;;6316766;28;20305;-70
2023/06/04 04:43:16;;;;;;;3.88;0.90;;;;;;;;;;6317463;28;20294;-71
2023/06/04 04:46:21;;;;;;;0.80;0.80;;;;;;;;;;6334814;28;20297;-70
2023/06/04 04:49:27;;;;;;;0.90;0.82;;;;;;;;;;6334753;28;20301;-70
2023/06/04 04:52:32;;;;;;;0.95;0.95;;;;;;;;;;6335390;28;20373;-70
2023/06/04 04:55:39;;;;;;;1.00;1.00;;;;;;;;;;6334687;28;20301;-70
2023/06/04 04:58:44;;;;;;;0.90;0.90;;;;;;;;;;6316250;28;20609;-69
2023/06/04 05:01:50;;;;;;;0.70;0.70;;;;;;;;;;6316679;28;20298;-69
2023/06/04 05:04:55;;;;;;;0.73;0.70;;;;;;;;;;6334212;28;20290;-69
2023/06/04 05:08:01;;;;;;;0.90;0.90;;;;;;;;;;6316523;28;20289;-70
2023/06/04 05:11:13;;;;;;;0.90;0.90;;;;;;;;;;6312786;28;20289;-70
2023/06/04 05:14:19;;;;;;;1.48;0.80;;;;;;;;;;6316183;28;20297;-69
2023/06/04 05:17:30;;;;;;;0.80;0.80;;;;;;;;;;6316903;28;20290;-70
2023/06/04 05:20:40;;;;;;;4.95;0.90;;;;;;;;;;6315170;28;20290;-69
2023/06/04 05:23:48;;;;;;;0.70;0.70;;;;;;;;;;6316416;28;20289;-71
2023/06/04 05:26:58;;;;;;;;;;;;;;;;;;6317073;28;20002;-70
2023/06/04 05:30:03;;;;;;;;;;;;;;;;;;6316987;28;20204;-70
2023/06/04 05:33:17;;;;;;;1.65;0.70;;;;;;;;;;6334437;28;20286;-70
2023/06/04 05:36:32;;;;;;;0.70;0.70;;;;;;;;;;6316051;28;20293;-71
2023/06/04 05:39:40;;;;;;;0.70;0.70;;;;;;;;;;6317190;28;20377;-70
2023/06/04 05:42:51;;;;;;;0.70;0.70;;;;;;;;;;6316740;28;20294;-69
2023/06/04 05:45:56;;;;;;;0.60;0.60;;;;;;;;;;6316535;28;20285;-70
2023/06/04 05:49:02;;;;;;;0.80;0.80;;;;;;;;;;6316098;28;20294;-70
2023/06/04 05:52:08;;;;;;;0.70;0.70;;;;;;;;;;6316116;28;20297;-70
2023/06/04 05:55:14;;;;;;;1.20;1.20;;;;;;;;;;6333835;28;20453;-70
2023/06/04 05:58:22;;;;;;;0.70;0.70;;;;;;;;;;6333949;28;20293;-69
2023/06/04 06:01:27;;;;;;;0.80;0.80;;;;;;;;;;6315933;28;20289;-69
2023/06/04 06:04:33;;;;;;;0.70;0.70;;;;;;;;;;6315130;28;20302;-69
2023/06/04 06:07:38;;;;;;;2.10;0.80;;;;;;;;;;6316110;28;20301;-71
2023/06/04 06:10:44;;;;;;;0.70;0.70;;;;;;;;;;6333899;28;20311;-70
2023/06/04 06:13:51;;;;;;;5.93;0.77;;;;;;;;;;6315713;28;20294;-70
2023/06/04 06:16:56;;;;;;;0.60;0.60;;;;;;;;;;6333849;28;20287;-70
2023/06/04 06:20:03;;;;;;;0.80;0.80;;;;;;;;;;6315562;28;20301;-70
2023/06/04 06:23:12;;;;;;;0.70;0.70;;;;;;;;;;6316488;28;20294;-70
2023/06/04 06:26:21;;;;;;;0.70;0.70;;;;;;;;;;6316904;28;20594;-70
2023/06/04 06:29:33;;;;;;;0.68;0.68;;;;;;;;;;6319980;28;20297;-70
2023/06/04 06:32:38;;;;;;;0.60;0.60;;;;;;;;;;6319543;28;20273;-70
2023/06/04 06:35:46;;;;;;;0.60;0.60;;;;;;;;;;6338311;28;20293;-69
2023/06/04 06:38:52;;;;;;;0.60;0.60;;;;;;;;;;6337809;28;20261;-71
2023/06/04 06:41:57;;;;;;;0.60;0.60;;;;;;;;;;6338388;28;20289;-71
2023/06/04 06:45:10;;;;;;;0.70;0.70;;;;;;;;;;6319790;28;20293;-71
2023/06/04 06:48:16;;;;;;;0.50;0.50;;;;;;;;;;6338218;28;20310;-69
2023/06/04 06:51:21;;;;;;;0.70;0.70;;;;;;;;;;6336609;28;20387;-69
2023/06/04 06:54:27;;;;;;;0.57;0.57;;;;;;;;;;6337748;28;20291;-69
2023/06/04 06:57:33;;;;;;;0.70;0.70;;;;;;;;;;6320332;28;20320;-70
2023/06/04 07:00:41;;;;;;;0.68;0.68;;;;;;;;;;6337440;28;20289;-71
2023/06/04 07:03:46;;;;;;;0.70;0.70;;;;;;;;;;6319563;28;20297;-70
2023/06/04 07:06:51;;;;;;;0.80;0.80;;;;;;;;;;6337609;28;20285;-69
2023/06/04 07:09:56;;;;;;;0.70;0.70;;;;;;;;;;6337178;28;20302;-71
2023/06/04 07:13:01;;;;;;;0.80;0.80;;;;;;;;;;6319580;28;20323;-69
2023/06/04 07:16:08;;;;;;;0.60;0.60;;;;;;;;;;6337943;28;20302;-70
2023/06/04 07:19:13;;;;;;;0.80;0.80;;;;;;;;;;6337864;28;20289;-69
2023/06/04 07:22:18;;;;;;;1.85;0.68;;;;;;;;;;6320030;28;20395;-69
2023/06/04 07:25:25;;;;;;;0.73;0.73;;;;;;;;;;6319042;28;20294;-69
2023/06/04 07:28:30;;;;;;;0.73;0.73;;;;;;;;;;6337141;28;20289;-70
2023/06/04 07:31:37;;;;;;;0.60;0.60;;;;;;;;;;6318556;28;20366;-71
2023/06/04 07:34:42;;;;;;;1.27;0.70;;;;;;;;;;6336775;28;20298;-70
2023/06/04 07:37:48;;;;;;;1.75;0.77;;;;;;;;;;6336956;28;20294;-70
2023/06/04 07:40:54;;;;;;;0.60;0.60;;;;;;;;;;6336482;28;20468;-69
2023/06/04 07:43:59;;;;;;;1.38;0.60;;;;;;;;;;6336529;28;20297;-71
2023/06/04 07:47:06;;;;;;;0.57;0.57;;;;;;;;;;6337096;28;20285;-69
2023/06/04 07:50:12;;;;;;;0.57;0.57;;;;;;;;;;6335820;28;20294;-70
2023/06/04 07:53:18;;;;;;;0.57;0.57;;;;;;;;;;6337144;28;20290;-69
2023/06/04 07:56:23;;;;;;;0.60;0.60;;;;;;;;;;6336339;28;20365;-69
2023/06/04 07:59:29;;;;;;;0.70;0.70;;;;;;;;;;6335853;28;20297;-71
2023/06/04 08:02:36;;;;;;;0.70;0.70;;;;;;;;;;6336201;28;20290;-70
2023/06/04 08:05:41;;;;;;;1.55;0.80;;;;;;;;;;6335119;28;20501;-70
2023/06/04 08:08:48;;;;;;;0.70;0.70;;;;;;;;;;6335728;28;20289;-70
2023/06/04 08:11:53;;;;;;;0.80;0.60;;;;;;;;;;6336222;28;20270;-70
2023/06/04 08:14:58;;;;;;;0.65;0.65;;;;;;;;;;6335764;28;20290;-70
2023/06/04 08:18:05;;;;;;;0.60;0.60;;;;;;;;;;6336221;28;20306;-69
2023/06/04 08:21:11;;;;;;;1.10;0.60;;;;;;;;;;6336623;28;20443;-69
2023/06/04 08:24:17;;;;;;;0.60;0.60;;;;;;;;;;6335564;28;20302;-70
2023/06/04 08:27:22;;;;;;;0.75;0.75;;;;;;;;;;6335478;28;20290;-71
2023/06/04 08:30:28;;;;;;;0.63;0.63;;;;;;;;;;6335970;28;20297;-70
2023/06/04 08:33:34;;;;;;;0.63;0.63;;;;;;;;;;6336275;28;20312;-69
2023/06/04 08:36:39;;;;;;;0.60;0.60;;;;;;;;;;6335381;28;20294;-70
2023/06/04 08:39:45;;;;;;;0.80;0.80;;;;;;;;;;6335260;28;20298;-71
2023/06/04 08:42:50;;;;;;;0.63;0.63;;;;;;;;;;6336028;28;20290;-70
2023/06/04 08:46:01;;;;;;;1.85;0.50;;;;;;;;;;6334556;28;20566;-69
2023/06/04 08:49:09;;;;;;;3.35;0.60;;;;;;;;;;6334544;28;20310;-69
2023/06/04 08:52:14;;;;;;;1.05;1.05;;;;;;;;;;6334851;28;20366;-69
2023/06/04 08:55:19;;;;;;;0.60;0.60;;;;;;;;;;6334138;28;20302;-71
2023/06/04 08:58:25;;;;;;;0.60;0.60;;;;;;;;;;6334439;28;20293;-70
2023/06/04 09:01:30;;;;;;;0.80;0.80;;;;;;;;;;6334103;28;20302;-71
2023/06/04 09:04:37;;;;;;;0.73;0.73;;;;;;;;;;6333432;28;20290;-69
2023/06/04 09:07:43;;;;;;;0.60;0.60;;;;;;;;;;6334591;28;20305;-70
2023/06/04 09:10:51;;;;;;;0.70;0.70;;;;;;;;;;6333641;28;20290;-70
2023/06/04 09:14:00;;;;;;;1.10;1.10;;;;;;;;;;6334606;28;20314;-69
2023/06/04 09:17:06;;;;;;;1.10;1.10;;;;;;;;;;6335210;28;20282;-70
2023/06/04 09:20:25;;;;;;;0.90;0.90;;;;;;;;;;6334571;28;20329;-71
2023/06/04 09:23:31;;;;;;;0.60;0.60;;;;;;;;;;6316602;28;20298;-69
2023/06/04 09:26:37;;;;;;;0.70;0.70;;;;;;;;;;6333150;28;20277;-70
2023/06/04 09:29:49;;;;;;;0.90;0.77;;;;;;;;;;6328877;28;20429;-70
2023/06/04 09:32:55;;;;;;;0.68;0.68;;;;;;;;;;6308509;28;20266;-69
2023/06/04 09:36:02;;;;;;;0.70;0.70;;;;;;;;;;6308193;28;20290;-71
2023/06/04 09:39:17;;;;;;;0.70;0.68;;;;;;;;;;6309911;28;20298;-70
2023/06/04 09:42:22;;;;;;;0.70;0.70;;;;;;;;;;6309297;28;20366;-69
2023/06/04 09:45:32;;;;;;;0.88;0.88;;;;;;;;;;6308741;28;20303;-70
2023/06/04 09:48:37;;;;;;;2.40;0.80;;;;;;;;;;6308257;28;20314;-71
2023/06/04 09:51:50;;;;;;;0.77;0.77;;;;;;;;;;6308708;28;20299;-70
2023/06/04 09:54:56;;;;;;;1.90;0.80;;;;;;;;;;6290817;28;20294;-69
2023/06/04 09:58:01;;;;;;;0.80;0.80;;;;;;;;;;6308548;28;20302;-72
2023/06/04 10:01:07;;;;;;;0.80;0.80;;;;;;;;;;6309097;28;20293;-70
2023/06/04 10:04:15;;;;;;;0.80;0.80;;;;;;;;;;6313155;28;20389;-71
2023/06/04 10:07:22;;;;;;;0.73;0.73;;;;;;;;;;6296151;28;20286;-69
2023/06/04 10:10:28;;;;;;;0.80;0.80;;;;;;;;;;6317383;28;20289;-69
2023/06/04 10:13:39;;;;;;;0.85;0.85;;;;;;;;;;6339028;28;20328;-69
2023/06/04 10:16:44;;;;;;;1.75;0.80;;;;;;;;;;6337845;28;20294;-69
2023/06/04 10:19:51;;;;;;;0.90;0.90;;;;;;;;;;6338212;28;20561;-70
2023/06/04 10:22:59;;;;;;;0.88;0.88;;;;;;;;;;6338721;28;20293;-70
2023/06/04 10:26:04;;;;;;;0.80;0.80;;;;;;;;;;6338115;28;20305;-70
2023/06/04 10:29:10;;;;;;;0.70;0.70;;;;;;;;;;6338050;28;20289;-70
2023/06/04 10:32:16;;;;;;;0.90;0.90;;;;;;;;;;6338422;28;20293;-71
2023/06/04 10:35:32;;;;;;;1.05;1.05;;;;;;;;;;6338000;28;20301;-70
2023/06/04 10:38:46;;;;;;;0.80;0.80;;;;;;;;;;6337165;28;20571;-70
2023/06/04 10:42:00;;;;;;;0.50;0.50;;;;;;;;;;6338202;28;20266;-70
2023/06/04 10:45:06;;;;;;;0.52;0.52;;;;;;;;;;6337752;28;20582;-69
2023/06/04 10:48:14;;;;;;;0.80;0.80;;;;;;;;;;6337984;28;20310;-69
2023/06/04 10:51:31;;;;;;;0.77;0.77;;;;;;;;;;6337621;28;20294;-70
2023/06/04 10:54:38;;;;;;;0.70;0.70;;;;;;;;;;6337246;28;20602;-70
2023/06/04 10:57:53;;;;;;;0.90;0.90;;;;;;;;;;6338599;28;20583;-69
2023/06/04 11:00:59;;;;;;;0.90;0.90;;;;;;;;;;6320194;28;20434;-69
2023/06/04 11:04:05;;;;;;;0.80;0.80;;;;;;;;;;6324672;28;20314;-69
2023/06/04 11:07:10;;;;;;;0.85;0.85;;;;;;;;;;6312617;28;20310;-70
2023/06/04 11:10:18;;;;;;;0.77;0.77;;;;;;;;;;6312114;28;20295;-69
2023/06/04 11:13:25;;;;;;;0.80;0.80;;;;;;;;;;6286787;28;20294;-70
2023/06/04 11:16:34;;;;;;;0.73;0.70;;;;;;;;;;6287246;28;20493;-68
2023/06/04 11:19:39;;;;;;;1.25;1.25;;;;;;;;;;6287372;28;20295;-69
2023/06/04 11:22:50;;;;;;;0.70;0.70;;;;;;;;;;6288233;28;20299;-71
2023/06/04 11:25:58;;;;;;;0.90;0.70;;;;;;;;;;6287403;28;20300;-70
2023/06/04 11:29:11;;;;;;;0.90;0.90;;;;;;;;;;6287828;28;20611;-71
2023/06/04 11:32:23;;;;;;;1.35;0.60;;;;;;;;;;6288400;28;20294;-69
2023/06/04 11:35:28;;;;;;;0.90;0.90;;;;;;;;;;6269346;28;20573;-70
2023/06/04 11:38:34;;;;;;;1.00;1.00;;;;;;;;;;6270126;28;20290;-69
2023/06/04 11:41:40;;;;;;;0.90;0.90;;;;;;;;;;6286561;28;20363;-69
2023/06/04 11:44:48;;;;;;;2.28;0.80;;;;;;;;;;6288241;28;20300;-70
2023/06/04 11:47:55;;;;;;;2.38;1.30;;;;;;;;;;6289354;28;20279;-71
2023/06/04 11:51:08;;;;;;;1.20;1.20;;;;;;;;;;6287405;28;20289;-69
2023/06/04 11:54:14;;;;;;;1.58;1.10;;;;;;;;;;6287444;28;20294;-70
2023/06/04 11:57:21;;;;;;;1.10;1.10;;;;;;;;;;6288182;28;20386;-69
2023/06/04 12:00:26;;;;;;;0.80;0.80;;;;;;;;;;6285872;28;20287;-71
2023/06/04 12:03:38;;;;;;;0.95;0.63;;;;;;;;;;6295337;28;20477;-69
2023/06/04 12:06:53;;;;;;;1.65;1.02;;;;;;;;;;6292995;28;20294;-72
2023/06/04 12:10:07;;;;;;;1.00;1.00;;;;;;;;;;6310901;28;20306;-70
2023/06/04 12:13:15;;;;;;;0.65;0.65;;;;;;;;;;6317435;28;20453;-69
2023/06/04 12:16:20;;;;;;;0.70;0.70;;;;;;;;;;6335786;28;20434;-70
2023/06/04 12:19:26;;;;;;;0.98;0.98;;;;;;;;;;6335568;28;20441;-70
2023/06/04 12:22:32;;;;;;;0.82;0.82;;;;;;;;;;6335638;28;20309;-71
2023/06/04 12:25:38;;;;;;;1.70;0.80;;;;;;;;;;6335078;28;20286;-70
2023/06/04 12:28:45;;;;;;;0.80;0.80;;;;;;;;;;6335242;28;20319;-71
2023/06/04 12:31:50;;;;;;;0.95;0.80;;;;;;;;;;6336343;28;20487;-69
2023/06/04 12:34:56;;;;;;;0.70;0.70;;;;;;;;;;6335995;28;20310;-70
2023/06/04 12:38:03;;;;;;;1.00;1.00;;;;;;;;;;6336348;28;20290;-70
2023/06/04 12:41:10;;;;;;;0.90;0.90;;;;;;;;;;6318004;28;20285;-69
2023/06/04 12:44:17;;;;;;;0.70;0.70;;;;;;;;;;6336116;28;20294;-69
2023/06/04 12:47:22;;;;;;;3.45;0.63;;;;;;;;;;6337412;28;20293;-69
2023/06/04 12:50:28;;;;;;;3.30;0.80;;;;;;;;;;6335994;28;20294;-71
2023/06/04 12:53:33;;;;;;;1.08;0.80;;;;;;;;;;6336731;28;20291;-70
2023/06/04 12:56:38;;;;;;;0.95;0.70;;;;;;;;;;6313540;28;20395;-70
2023/06/04 12:59:45;;;;;;;1.17;1.05;;;;;;;;;;6335380;28;20476;-70
2023/06/04 13:02:51;;;;;;;0.60;0.60;;;;;;;;;;6336536;28;20294;-69
2023/06/04 13:05:56;;;;;;;3.33;0.70;;;;;;;;;;6336091;28;20282;-70
2023/06/04 13:09:03;;;;;;;1.00;0.70;;;;;;;;;;6318318;28;20286;-69
2023/06/04 13:12:09;;;;;;;1.75;0.90;;;;;;;;;;6335467;28;20289;-70
2023/06/04 13:15:16;;;;;;;0.68;0.68;;;;;;;;;;6335051;28;20293;-70
2023/06/04 13:18:21;;;;;;;0.80;0.80;;;;;;;;;;6318148;28;20388;-70
2023/06/04 13:21:27;;;;;;;1.48;0.77;;;;;;;;;;6335450;28;20285;-70
2023/06/04 13:24:32;;;;;;;0.70;0.70;;;;;;;;;;6334711;28;20294;-70
2023/06/04 13:27:37;;;;;;;2.85;0.80;;;;;;;;;;6335160;28;20457;-70
2023/06/04 13:30:44;;;;;;;0.70;0.70;;;;;;;;;;6317529;28;20293;-71
2023/06/04 13:33:49;;;;;;;0.70;0.70;;;;;;;;;;6334294;28;20317;-72
2023/06/04 13:36:56;;;;;;;0.80;0.80;;;;;;;;;;6335143;28;20289;-70
2023/06/04 13:40:01;;;;;;;1.23;0.70;;;;;;;;;;6335731;28;20301;-70
2023/06/04 13:43:06;;;;;;;0.77;0.70;;;;;;;;;;6335679;28;20289;-70
2023/06/04 13:46:13;;;;;;;1.98;0.80;;;;;;;;;;6334151;28;20290;-69
2023/06/04 13:49:19;;;;;;;2.35;0.70;;;;;;;;;;6336864;28;20291;-69
2023/06/04 13:52:25;;;;;;;2.28;0.80;;;;;;;;;;6334833;28;20289;-70
2023/06/04 13:55:31;;;;;;;2.10;0.85;;;;;;;;;;6334964;28;20457;-70
2023/06/04 13:58:36;;;;;;;1.00;1.00;;;;;;;;;;6317145;28;20294;-70
2023/06/04 14:01:43;;;;;;;1.48;0.70;;;;;;;;;;6334266;28;20310;-71
2023/06/04 14:04:50;;;;;;;1.65;0.77;;;;;;;;;;6333914;28;20293;-70
2023/06/04 14:07:56;;;;;;;1.33;0.73;;;;;;;;;;6334689;28;20293;-69
2023/06/04 14:11:01;;;;;;;0.80;0.80;;;;;;;;;;6333736;28;20286;-69
2023/06/04 14:14:06;;;;;;;2.08;0.70;;;;;;;;;;6334706;28;20297;-70
2023/06/04 14:17:13;;;;;;;1.13;1.13;;;;;;;;;;6317596;28;20301;-70
2023/06/04 14:20:18;;;;;;;1.20;0.93;;;;;;;;;;6335003;28;20297;-70
2023/06/04 14:23:23;;;;;;;0.80;0.80;;;;;;;;;;6317348;28;20290;-68
2023/06/04 14:26:29;;;;;;;0.80;0.80;;;;;;;;;;6334942;28;20298;-70
2023/06/04 14:29:35;;;;;;;0.93;0.80;;;;;;;;;;6335809;28;20297;-70
2023/06/04 14:32:44;;;;;;;0.80;0.80;;;;;;;;;;6334972;28;20270;-71
2023/06/04 14:35:50;;;;;;;1.40;0.80;;;;;;;;;;6334112;28;20294;-69
2023/06/04 14:38:55;;;;;;;0.90;0.90;;;;;;;;;;6333739;28;20448;-70
2023/06/04 14:42:00;;;;;;;1.08;0.80;;;;;;;;;;6334888;28;20294;-71
2023/06/04 14:45:06;;;;;;;1.20;0.82;;;;;;;;;;6316161;28;20298;-70
2023/06/04 14:48:14;;;;;;;;;;;;;;;;;;6335535;28;20265;-71
2023/06/04 14:51:23;;;;;;;2.03;0.82;;;;;;;;;;6322183;28;20276;-70
2023/06/04 14:54:29;;;;;;;0.82;0.82;;;;;;;;;;6338617;28;20306;-70
2023/06/04 14:57:34;;;;;;;2.78;1.17;;;;;;;;;;6338489;28;20290;-71
2023/06/04 15:00:40;;;;;;;0.75;0.75;;;;;;;;;;6337585;28;20314;-70
2023/06/04 15:03:46;;;;;;;2.38;1.25;;;;;;;;;;6338018;28;20293;-70
2023/06/04 15:06:51;;;;;;;0.85;0.85;;;;;;;;;;6338434;28;20344;-71
2023/06/04 15:09:57;;;;;;;1.30;0.80;;;;;;;;;;6338380;28;20298;-71
2023/06/04 15:13:02;;;;;;;0.90;0.90;;;;;;;;;;6339695;28;20290;-69
2023/06/04 15:16:08;;;;;;;1.50;1.40;;;;;;;;;;6339232;28;20301;-71
2023/06/04 15:19:15;;;;;;;1.15;1.15;;;;;;;;;;6320062;28;20305;-68
2023/06/04 15:22:20;;;;;;;1.08;1.08;;;;;;;;;;6320476;28;20317;-71
2023/06/04 15:25:26;;;;;;;3.40;0.80;;;;;;;;;;6337254;28;20294;-70
2023/06/04 15:28:34;;;;;;;0.80;0.80;;;;;;;;;;6337663;28;20597;-69
2023/06/04 15:31:39;;;;;;;3.05;0.80;;;;;;;;;;6336725;28;20491;-70
2023/06/04 15:34:46;;;;;;;1.00;1.00;;;;;;;;;;6336786;28;20290;-70
2023/06/04 15:37:51;;;;;;;0.80;0.80;;;;;;;;;;6337235;28;20293;-69
2023/06/04 15:40:56;;;;;;;6.50;0.82;;;;;;;;;;6336543;28;20294;-70
2023/06/04 15:44:02;;;;;;;0.77;0.77;;;;;;;;;;6336949;28;20601;-72
2023/06/04 15:47:07;;;;;;;0.70;0.70;;;;;;;;;;6337132;28;20293;-71
2023/06/04 15:50:14;;;;;;;1.63;0.80;;;;;;;;;;6336287;28;20460;-70
2023/06/04 15:53:20;;;;;;;0.90;0.90;;;;;;;;;;6337045;28;20286;-71
2023/06/04 15:56:25;;;;;;;3.13;0.77;;;;;;;;;;6335907;28;20294;-70
2023/06/04 15:59:30;;;;;;;1.95;0.90;;;;;;;;;;6335930;28;20299;-70
2023/06/04 16:02:36;;;;;;;1.00;1.00;;;;;;;;;;6336642;28;20290;-69
2023/06/04 16:05:42;;;;;;;0.80;0.80;;;;;;;;;;6335215;28;20289;-70
2023/06/04 16:08:47;;;;;;;1.70;0.90;;;;;;;;;;6335599;28;20286;-69
2023/06/04 16:11:53;;;;;;;4.90;1.10;;;;;;;;;;6336094;28;20261;-70
2023/06/04 16:14:58;;;;;;;4.60;0.88;;;;;;;;;;6335429;28;20463;-69
2023/06/04 16:18:03;;;;;;;0.98;0.90;;;;;;;;;;6336218;28;20308;-70
2023/06/04 16:21:11;;;;;;;1.35;0.80;;;;;;;;;;6318018;28;20301;-69
2023/06/04 16:24:16;;;;;;;2.83;1.00;;;;;;;;;;6335354;28;20301;-71
2023/06/04 16:27:22;;;;;;;1.95;0.80;;;;;;;;;;6336400;28;20317;-70
2023/06/04 16:30:27;;;;;;;3.15;0.90;;;;;;;;;;6335769;28;20285;-70
2023/06/04 16:33:35;;;;;;;1.75;1.00;;;;;;;;;;6318194;28;20305;-69
2023/06/04 16:36:42;;;;;;;2.05;1.50;;;;;;;;;;6335996;28;20289;-70
2023/06/04 16:39:47;;;;;;;3.20;1.75;;;;;;;;;;6335701;28;20297;-70
2023/06/04 16:42:53;;;;;;;4.40;1.40;;;;;;;;;;6335799;28;20290;-70
2023/06/04 16:45:58;;;;;;;7.57;1.70;;;;;;;;;;6335347;28;20309;-70
2023/06/04 16:49:04;;;;;;;2.47;1.73;;;;;;;;;;6334934;28;20455;-69
2023/06/04 16:52:10;;;;;;;2.63;1.42;;;;;;;;;;6335629;28;20597;-69
2023/06/04 16:55:16;;;;;;;1.17;1.17;;;;;;;;;;6334774;28;20293;-70
2023/06/04 16:58:21;;;;;;;2.97;2.38;;;;;;;;;;6335402;28;20301;-69
2023/06/04 17:01:26;;;;;;;1.75;1.30;;;;;;;;;;6335201;28;20297;-70
2023/06/04 17:04:32;;;;;;;0.80;0.80;;;;;;;;;;6334637;28;20309;-69
2023/06/04 17:07:39;;;;;;;0.80;0.80;;;;;;;;;;6335217;28;20306;-69
2023/06/04 17:10:47;;;;;;;4.07;0.90;;;;;;;;;;6330403;28;20294;-70
2023/06/04 17:13:52;;;;;;;1.33;0.90;;;;;;;;;;6309290;28;20290;-69
2023/06/04 17:16:57;;;;;;;0.82;0.82;;;;;;;;;;6310215;28;20302;-70
2023/06/04 17:20:03;;;;;;;8.32;1.10;;;;;;;;;;6309699;28;20298;-71
2023/06/04 17:23:22;;;;;;;0.95;0.95;;;;;;;;;;6311976;28;20290;-71
2023/06/04 17:26:27;;;;;;;7.03;3.30;;;;;;;;;;6313334;28;20303;-69
2023/06/04 17:29:33;;;;;;;0.98;0.90;;;;;;;;;;6314547;28;20306;-69
2023/06/04 17:32:38;;;;;;;0.98;0.98;;;;;;;;;;6314260;28;20275;-71
2023/06/04 17:35:43;;;;;;;0.90;0.90;;;;;;;;;;6313774;28;20302;-71
2023/06/04 17:38:50;;;;;;;7.43;1.00;;;;;;;;;;6312473;28;20262;-71
2023/06/04 17:41:55;;;;;;;2.38;0.85;;;;;;;;;;6313119;28;20290;-69
2023/06/04 17:45:07;;;;;;;2.13;0.80;;;;;;;;;;6312236;28;20295;-70
2023/06/04 17:48:13;;;;;;;0.90;0.90;;;;;;;;;;6313857;28;20315;-70
2023/06/04 17:51:19;;;;;;;0.80;0.80;;;;;;;;;;6313480;28;20310;-72
2023/06/04 17:54:26;;;;;;;0.90;0.90;;;;;;;;;;6312962;28;20286;-72
2023/06/04 17:57:31;;;;;;;1.45;1.00;;;;;;;;;;6313539;28;20302;-70
2023/06/04 18:00:36;;;;;;;0.80;0.80;;;;;;;;;;6312167;28;20294;-70
2023/06/04 18:03:41;;;;;;;0.80;0.80;;;;;;;;;;6323494;28;20302;-72
2023/06/04 18:06:46;;;;;;;2.28;0.80;;;;;;;;;;6338215;28;20303;-70
2023/06/04 18:09:53;;;;;;;2.65;1.17;;;;;;;;;;6335912;28;20309;-70
2023/06/04 18:12:58;;;;;;;1.00;0.90;;;;;;;;;;6332762;28;20297;-70
2023/06/04 18:16:03;;;;;;;2.25;1.15;;;;;;;;;;6334414;28;20297;-70
2023/06/04 18:19:11;;;;;;;2.85;1.00;;;;;;;;;;6334251;28;20297;-70
2023/06/04 18:22:17;;;;;;;2.50;1.02;;;;;;;;;;6335166;28;20301;-71
2023/06/04 18:25:26;;;;;;;1.58;1.10;;;;;;;;;;6338934;28;20293;-71
2023/06/04 18:28:31;;;;;;;1.80;0.90;;;;;;;;;;6339296;28;20289;-70
2023/06/04 18:31:36;;;;;;;1.40;1.40;;;;;;;;;;6338556;28;20590;-71
2023/06/04 18:34:41;;;;;;;0.90;0.90;;;;;;;;;;6320630;28;20314;-71
2023/06/04 18:37:46;;;;;;;0.80;0.80;;;;;;;;;;6339186;28;20301;-70